Time;durP1;ratioP1;P1;durP2;ratioP2;P2;SDS_P1;SDS_P2;PMS_P1;PMS_P2;Temp;Humidity;BMP_temperature;BMP_pressure;BME280_temperature;BME280_humidity;BME280_pressure;Samples;Min_cycle;Max_cycle;Signal;HPM_P1;HPM_P2
2023/07/20 00:01:26;;;;;;;0.30;0.30;;;14.90;99.90;;;;;;4863828;29;20136;-85
2023/07/20 00:03:57;;;;;;;0.10;0.10;;;14.80;99.90;;;;;;4848895;29;20141;-85
2023/07/20 00:06:27;;;;;;;0.25;0.25;;;14.70;99.90;;;;;;4859269;29;20125;-85
2023/07/20 00:08:58;;;;;;;0.00;0.00;;;14.70;99.90;;;;;;4860158;29;20057;-85
2023/07/20 00:11:26;;;;;;;0.38;0.32;;;14.70;99.90;;;;;;4857549;29;20053;-85
2023/07/20 00:13:52;;;;;;;0.40;0.25;;;14.70;99.90;;;;;;4848632;29;20474;-85
2023/07/20 00:16:18;;;;;;;0.13;0.13;;;14.70;99.90;;;;;;4864209;29;20108;-85
2023/07/20 00:18:43;;;;;;;0.10;0.10;;;14.70;99.90;;;;;;4863621;29;20045;-85
2023/07/20 00:21:09;;;;;;;0.07;0.07;;;14.70;99.90;;;;;;4879626;29;20634;-85
2023/07/20 00:23:35;;;;;;;0.10;0.10;;;14.70;99.90;;;;;;4848150;29;20076;-85
2023/07/20 00:26:01;;;;;;;0.20;0.20;;;14.70;99.90;;;;;;4879766;29;20075;-85
2023/07/20 00:28:26;;;;;;;0.17;0.17;;;14.70;99.90;;;;;;4862441;29;20044;-85
2023/07/20 00:30:52;;;;;;;0.37;0.37;;;14.70;99.90;;;;;;4879383;29;20100;-85
2023/07/20 00:33:18;;;;;;;0.33;0.33;;;14.70;99.90;;;;;;4863610;29;20084;-85
2023/07/20 00:35:44;;;;;;;0.30;0.30;;;14.70;99.90;;;;;;4862274;29;20514;-85
2023/07/20 00:38:10;;;;;;;0.20;0.20;;;14.70;99.90;;;;;;4876717;29;20053;-85
2023/07/20 00:40:40;;;;;;;0.40;0.35;;;14.70;99.90;;;;;;4849320;29;20057;-85
2023/07/20 00:43:06;;;;;;;0.47;0.47;;;14.70;99.90;;;;;;4848328;29;20064;-85
2023/07/20 00:45:33;;;;;;;0.20;0.20;;;14.70;99.90;;;;;;4863031;29;20052;-85
2023/07/20 00:48:01;;;;;;;0.38;0.28;;;14.70;99.90;;;;;;4863678;29;20498;-85
2023/07/20 00:50:28;;;;;;;0.20;0.20;;;14.70;99.90;;;;;;4863012;29;20057;-86
2023/07/20 00:52:55;;;;;;;0.40;0.40;;;14.60;99.90;;;;;;4848072;29;20053;-85
2023/07/20 00:55:23;;;;;;;0.25;0.25;;;14.60;99.90;;;;;;4863426;29;20161;-85
2023/07/20 00:57:49;;;;;;;0.30;0.30;;;14.60;99.90;;;;;;4860973;29;20536;-85
2023/07/20 01:00:15;;;;;;;0.47;0.30;;;14.60;99.90;;;;;;4847241;29;20057;-85
2023/07/20 01:02:41;;;;;;;0.35;0.32;;;14.60;99.90;;;;;;4862819;29;20113;-85
2023/07/20 01:05:08;;;;;;;0.50;0.50;;;14.60;99.90;;;;;;4832553;29;20053;-85
2023/07/20 01:07:48;;;;;;;0.43;0.43;;;14.60;99.90;;;;;;4847039;29;20520;-85
2023/07/20 01:10:29;;;;;;;0.10;0.10;;;14.60;99.90;;;;;;4879872;29;20052;-85
2023/07/20 01:12:55;;;;;;;0.45;0.20;;;14.50;99.90;;;;;;4863370;29;20398;-85
2023/07/20 01:15:21;;;;;;;0.20;0.20;;;14.50;99.90;;;;;;4863238;29;20063;-85
2023/07/20 01:17:47;;;;;;;0.28;0.28;;;14.50;99.90;;;;;;4847071;29;20517;-85
2023/07/20 01:20:14;;;;;;;0.10;0.10;;;14.50;99.90;;;;;;4863191;29;20069;-85
2023/07/20 01:22:44;;;;;;;0.20;0.20;;;14.50;99.90;;;;;;4862173;29;20061;-85
2023/07/20 01:25:31;;;;;;;0.20;0.20;;;14.40;99.90;;;;;;4862975;29;20067;-85
2023/07/20 01:28:24;;;;;;;0.20;0.20;;;14.40;99.90;;;;;;4846593;29;20055;-85
2023/07/20 01:30:59;;;;;;;0.20;0.20;;;14.40;99.90;;;;;;4846123;29;20060;-85
2023/07/20 01:33:26;;;;;;;0.40;0.40;;;14.30;99.90;;;;;;4878267;29;20044;-85
2023/07/20 01:35:57;;;;;;;0.15;0.15;;;14.30;99.90;;;;;;4862269;29;20136;-85
2023/07/20 01:38:24;;;;;;;0.20;0.20;;;14.20;99.90;;;;;;4862701;29;20053;-85
2023/07/20 01:40:51;;;;;;;0.20;0.20;;;14.20;99.90;;;;;;4843480;29;20522;-86
2023/07/20 01:43:17;;;;;;;0.38;0.22;;;14.20;99.90;;;;;;4854829;29;20052;-85
2023/07/20 01:45:43;;;;;;;0.40;0.30;;;14.10;99.90;;;;;;4844708;29;20046;-85
2023/07/20 01:48:09;;;;;;;0.43;0.38;;;14.00;99.90;;;;;;4878202;29;20056;-85
2023/07/20 01:50:35;;;;;;;0.20;0.20;;;14.00;99.90;;;;;;4877369;29;20501;-86
2023/07/20 01:53:01;;;;;;;0.55;0.55;;;14.00;99.90;;;;;;4863387;29;20053;-85
2023/07/20 01:55:27;;;;;;;0.57;0.38;;;14.00;99.90;;;;;;4844129;29;20045;-85
2023/07/20 01:57:54;;;;;;;0.50;0.20;;;14.00;99.90;;;;;;4858573;29;20135;-85
2023/07/20 02:00:23;;;;;;;0.90;0.73;;;13.90;99.90;;;;;;4875446;29;20309;-85
2023/07/20 02:02:49;;;;;;;0.30;0.30;;;13.90;99.90;;;;;;4861962;29;20053;-85
2023/07/20 02:05:15;;;;;;;0.38;0.30;;;13.90;99.90;;;;;;4847112;29;20085;-85
2023/07/20 02:07:41;;;;;;;0.40;0.38;;;13.80;99.90;;;;;;4846471;29;20091;-85
2023/07/20 02:10:07;;;;;;;0.73;0.45;;;13.80;99.90;;;;;;4862425;29;20060;-85
2023/07/20 02:12:33;;;;;;;0.40;0.40;;;13.80;99.90;;;;;;4862510;29;20049;-85
2023/07/20 02:14:58;;;;;;;0.30;0.30;;;13.70;99.90;;;;;;4876199;29;20044;-85
2023/07/20 02:17:24;;;;;;;0.47;0.47;;;13.70;99.90;;;;;;4860780;29;20041;-86
2023/07/20 02:19:54;;;;;;;0.30;0.30;;;13.70;99.90;;;;;;4858823;29;20517;-85
2023/07/20 02:22:21;;;;;;;0.30;0.30;;;13.70;99.90;;;;;;4849708;29;20623;-86
2023/07/20 02:24:47;;;;;;;0.40;0.40;;;13.60;99.90;;;;;;4851801;29;20402;-85
2023/07/20 02:27:12;;;;;;;0.43;0.43;;;13.60;99.90;;;;;;4850520;29;20045;-85
2023/07/20 02:29:40;;;;;;;0.53;0.53;;;13.60;99.90;;;;;;4854486;29;20479;-87
2023/07/20 02:32:06;;;;;;;0.43;0.43;;;13.60;99.90;;;;;;4857416;29;20518;-86
2023/07/20 02:34:33;;;;;;;0.82;0.68;;;13.60;99.90;;;;;;4851554;29;20046;-85
2023/07/20 02:37:00;;;;;;;0.52;0.47;;;13.50;99.90;;;;;;4855510;29;20181;-85
2023/07/20 02:39:27;;;;;;;0.45;0.45;;;13.50;99.90;;;;;;4853162;29;20401;-85
2023/07/20 02:41:54;;;;;;;0.30;0.30;;;13.60;99.90;;;;;;4853565;29;20068;-85
2023/07/20 02:44:19;;;;;;;0.65;0.40;;;13.50;99.90;;;;;;4856192;29;20375;-85
2023/07/20 02:46:45;;;;;;;1.17;0.40;;;13.50;99.90;;;;;;4853526;29;20053;-85
2023/07/20 02:49:11;;;;;;;0.60;0.60;;;13.40;99.90;;;;;;4857898;29;20060;-85
2023/07/20 02:51:37;;;;;;;0.50;0.47;;;13.40;99.90;;;;;;4871621;29;20132;-84
2023/07/20 02:54:05;;;;;;;0.40;0.40;;;13.40;99.90;;;;;;4876016;29;20091;-91
2023/07/20 02:56:34;;;;;;;0.73;0.60;;;13.40;99.90;;;;;;4849686;29;20064;-90
2023/07/20 02:59:04;;;;;;;0.70;0.70;;;13.40;99.90;;;;;;4865178;29;20092;-90
2023/07/20 03:01:39;;;;;;;;;;;;;;;;;;;;;
2023/07/20 03:04:22;;;;;;;1.23;0.80;;;13.30;99.90;;;;;;4865524;29;20075;-91
2023/07/20 03:07:00;;;;;;;0.43;0.40;;;13.30;99.90;;;;;;4849805;29;20498;-90
2023/07/20 03:09:29;;;;;;;0.77;0.77;;;13.30;99.90;;;;;;4865294;29;20061;-90
2023/07/20 03:12:06;;;;;;;0.30;0.30;;;13.20;99.90;;;;;;4850501;29;20463;-90
2023/07/20 03:14:34;;;;;;;1.17;0.82;;;13.30;99.90;;;;;;4865740;29;20412;-90
2023/07/20 03:17:08;;;;;;;0.25;0.25;;;13.20;99.90;;;;;;4850247;29;20431;-91
2023/07/20 03:19:39;;;;;;;1.08;0.82;;;13.10;99.90;;;;;;4865996;29;20081;-90
2023/07/20 03:22:07;;;;;;;0.47;0.40;;;13.10;99.90;;;;;;4850174;29;20655;-90
2023/07/20 03:24:36;;;;;;;0.40;0.40;;;14.00;99.90;;;;;;4850330;29;20148;-90
2023/07/20 03:27:04;;;;;;;0.82;0.47;;;13.00;99.90;;;;;;4865018;29;20045;-90
2023/07/20 03:29:32;;;;;;;0.50;0.50;;;13.00;99.90;;;;;;4865529;29;20063;-90
2023/07/20 03:31:59;;;;;;;0.35;0.35;;;13.00;99.90;;;;;;4849697;29;20052;-90
2023/07/20 03:34:34;;;;;;;0.40;0.40;;;13.00;99.90;;;;;;4865072;29;20053;-90
2023/07/20 03:37:05;;;;;;;0.30;0.30;;;12.90;99.90;;;;;;4864720;29;20088;-90
2023/07/20 03:39:38;;;;;;;0.80;0.50;;;12.90;99.90;;;;;;4865147;29;20084;-90
2023/07/20 03:42:06;;;;;;;0.95;0.77;;;12.90;99.90;;;;;;4864912;29;20053;-90
2023/07/20 03:44:39;;;;;;;0.50;0.35;;;12.90;99.90;;;;;;4849245;29;20486;-90
2023/07/20 03:47:09;;;;;;;0.55;0.55;;;12.80;99.90;;;;;;4849287;29;20148;-91
2023/07/20 03:49:39;;;;;;;0.63;0.40;;;11.90;99.90;;;;;;4865570;29;20060;-90
2023/07/20 03:52:08;;;;;;;0.60;0.60;;;12.70;99.90;;;;;;4850680;29;20088;-90
2023/07/20 03:54:34;;;;;;;0.28;0.28;;;12.80;99.90;;;;;;4866080;29;20048;-90
2023/07/20 03:57:09;;;;;;;0.25;0.25;;;12.60;99.90;;;;;;4865540;29;20168;-90
2023/07/20 03:59:47;;;;;;;;;;;;;;;;;;;;;
2023/07/20 04:02:13;;;;;;;0.38;0.38;;;12.50;99.90;;;;;;4864677;29;20056;-90
2023/07/20 04:04:41;;;;;;;0.73;0.63;;;12.50;99.90;;;;;;4849373;29;20045;-90
2023/07/20 04:07:07;;;;;;;0.40;0.40;;;12.50;99.90;;;;;;4849214;29;20056;-90
2023/07/20 04:09:42;;;;;;;0.55;0.30;;;12.50;99.90;;;;;;4865015;29;20410;-90
2023/07/20 04:12:13;;;;;;;1.23;0.77;;;12.50;99.90;;;;;;4849293;29;20573;-91
2023/07/20 04:14:45;;;;;;;0.30;0.30;;;12.40;99.90;;;;;;4849701;29;20132;-90
2023/07/20 04:17:13;;;;;;;0.10;0.10;;;12.40;99.90;;;;;;4863980;29;20630;-90
2023/07/20 04:19:49;;;;;;;0.20;0.20;;;12.40;99.90;;;;;;4864301;29;20524;-90
2023/07/20 04:22:15;;;;;;;0.30;0.30;;;12.40;99.90;;;;;;4864412;29;20398;-90
2023/07/20 04:24:57;;;;;;;0.70;0.53;;;12.40;99.90;;;;;;4849180;29;20052;-90
2023/07/20 04:27:27;;;;;;;0.47;0.47;;;12.40;99.90;;;;;;4849568;29;20294;-90
2023/07/20 04:29:53;;;;;;;0.40;0.40;;;12.50;99.90;;;;;;4864407;29;20048;-92
2023/07/20 04:32:29;;;;;;;0.40;0.40;;;12.50;99.90;;;;;;4864592;29;20052;-90
2023/07/20 04:34:58;;;;;;;0.30;0.30;;;12.40;99.90;;;;;;4848835;29;20105;-93
2023/07/20 04:37:26;;;;;;;0.68;0.30;;;12.50;99.90;;;;;;4848949;29;20121;-90
2023/07/20 04:39:55;;;;;;;0.38;0.32;;;12.50;99.90;;;;;;4848490;29;20525;-90
2023/07/20 04:42:23;;;;;;;0.50;0.50;;;12.50;99.90;;;;;;4848923;29;20052;-90
2023/07/20 04:45:01;;;;;;;;;;;;;;;;;;;;;
2023/07/20 04:47:30;;;;;;;0.40;0.25;;;12.40;99.90;;;;;;4864425;29;20056;-90
2023/07/20 04:49:55;;;;;;;0.10;0.10;;;12.70;99.90;;;;;;4848408;29;20065;-93
2023/07/20 04:52:30;;;;;;;0.50;0.47;;;12.80;99.90;;;;;;4848562;29;20068;-91
2023/07/20 04:54:56;;;;;;;0.22;0.22;;;12.70;99.90;;;;;;4863899;29;20494;-93
2023/07/20 04:57:27;;;;;;;0.43;0.43;;;12.80;99.90;;;;;;4847994;29;20056;-90
2023/07/20 04:59:58;;;;;;;0.22;0.20;;;12.60;99.90;;;;;;4833583;29;20139;-90
2023/07/20 05:02:26;;;;;;;0.93;0.88;;;13.00;99.90;;;;;;4864136;29;20084;-91
2023/07/20 05:04:54;;;;;;;0.40;0.40;;;13.00;99.90;;;;;;4864092;29;20124;-90
2023/07/20 05:07:24;;;;;;;0.55;0.50;;;13.10;99.90;;;;;;4863674;29;20048;-91
2023/07/20 05:10:18;;;;;;;0.03;0.03;;;13.30;99.90;;;;;;4863904;29;20099;-90
2023/07/20 05:12:55;;;;;;;0.40;0.40;;;13.50;99.90;;;;;;4849713;29;20410;-90
2023/07/20 05:15:41;;;;;;;1.15;0.88;;;13.70;99.90;;;;;;4848242;29;20052;-91
2023/07/20 05:18:09;;;;;;;0.77;0.52;;;14.10;99.90;;;;;;4863606;29;20053;-91
2023/07/20 05:20:45;;;;;;;0.43;0.43;;;14.20;99.90;;;;;;4863732;29;20080;-91
2023/07/20 05:23:16;;;;;;;0.20;0.20;;;14.50;99.90;;;;;;4863334;29;20049;-91
2023/07/20 05:25:44;;;;;;;0.52;0.52;;;14.70;99.90;;;;;;4863656;29;20135;-91
2023/07/20 05:28:12;;;;;;;0.50;0.50;;;15.00;99.90;;;;;;4863191;29;20051;-92
2023/07/20 05:30:40;;;;;;;0.20;0.20;;;15.10;99.90;;;;;;4848428;29;20053;-90
2023/07/20 05:33:06;;;;;;;0.50;0.38;;;15.20;99.90;;;;;;4847666;29;20052;-91
2023/07/20 05:35:34;;;;;;;0.20;0.20;;;15.20;99.90;;;;;;4848048;29;20068;-90
2023/07/20 05:38:06;;;;;;;0.70;0.52;;;15.20;99.90;;;;;;4848065;29;20057;-91
2023/07/20 05:40:34;;;;;;;0.40;0.28;;;14.40;99.90;;;;;;4863671;29;20502;-90
2023/07/20 05:43:00;;;;;;;0.30;0.30;;;15.00;99.90;;;;;;4847525;29;20176;-91
2023/07/20 05:45:36;;;;;;;0.20;0.20;;;14.80;99.90;;;;;;4862991;29;20132;-92
2023/07/20 05:48:02;;;;;;;0.30;0.30;;;14.80;99.90;;;;;;4847783;29;20053;-91
2023/07/20 05:50:51;;;;;;;0.22;0.22;;;14.70;99.90;;;;;;4878314;29;20101;-91
2023/07/20 05:53:20;;;;;;;0.28;0.28;;;14.50;99.90;;;;;;4846981;29;20185;-92
2023/07/20 05:56:00;;;;;;;0.10;0.10;;;14.50;99.90;;;;;;4862750;29;20056;-91
2023/07/20 05:58:43;;;;;;;;;;;14.40;99.90;;;;;;4847150;29;20060;-92
2023/07/20 06:01:20;;;;;;;0.10;0.10;;;14.20;99.90;;;;;;4862512;29;19923;-92
2023/07/20 06:03:48;;;;;;;0.22;0.22;;;14.30;99.90;;;;;;4847465;29;20101;-91
2023/07/20 06:06:16;;;;;;;0.20;0.20;;;14.30;99.90;;;;;;4847124;29;20063;-88
2023/07/20 06:08:44;;;;;;;0.10;0.10;;;14.30;99.90;;;;;;4847333;29;20049;-85
2023/07/20 06:11:10;;;;;;;0.20;0.20;;;14.30;99.90;;;;;;4877948;29;20049;-90
2023/07/20 06:13:46;;;;;;;0.43;0.43;;;14.50;99.90;;;;;;4862692;29;20055;-90
2023/07/20 06:16:14;;;;;;;0.10;0.10;;;14.70;99.90;;;;;;4846937;29;20057;-89
2023/07/20 06:18:44;;;;;;;0.10;0.10;;;14.90;99.90;;;;;;4862853;29;20088;-90
2023/07/20 06:21:15;;;;;;;0.50;0.15;;;15.20;99.90;;;;;;4862313;29;20053;-89
2023/07/20 06:23:46;;;;;;;0.20;0.20;;;15.40;99.90;;;;;;4863676;29;20140;-88
2023/07/20 06:26:17;;;;;;;0.10;0.10;;;15.40;99.90;;;;;;4863132;29;20502;-88
2023/07/20 06:28:42;;;;;;;0.30;0.30;;;15.40;99.90;;;;;;4862997;29;20407;-88
2023/07/20 06:31:08;;;;;;;0.32;0.32;;;15.40;99.90;;;;;;4862660;29;20045;-91
2023/07/20 06:33:36;;;;;;;0.20;0.10;;;15.50;99.90;;;;;;4862342;29;20562;-90
2023/07/20 06:36:03;;;;;;;0.20;0.20;;;15.70;99.90;;;;;;4865590;29;20052;-90
2023/07/20 06:38:36;;;;;;;0.10;0.10;;;15.80;99.90;;;;;;4862273;29;20227;-90
2023/07/20 06:41:02;;;;;;;0.10;0.10;;;16.00;99.90;;;;;;4862715;29;20076;-90
2023/07/20 06:43:28;;;;;;;0.22;0.08;;;16.20;99.90;;;;;;4877563;29;20087;-90
2023/07/20 06:45:54;;;;;;;0.20;0.20;;;16.20;99.90;;;;;;4862326;29;20049;-91
2023/07/20 06:48:21;;;;;;;0.28;0.25;;;16.40;99.90;;;;;;4862282;29;20102;-90
2023/07/20 06:50:46;;;;;;;;;;;16.60;99.90;;;;;;4847519;29;20476;-90
2023/07/20 06:53:13;;;;;;;0.10;0.10;;;16.60;99.90;;;;;;4861978;29;19969;-91
2023/07/20 06:55:39;;;;;;;0.00;0.00;;;16.80;99.90;;;;;;4862468;29;20070;-90
2023/07/20 06:58:05;;;;;;;0.15;0.15;;;16.80;99.90;;;;;;4846950;29;20057;-91
2023/07/20 07:00:30;;;;;;;0.20;0.20;;;16.90;99.90;;;;;;4861990;29;20076;-90
2023/07/20 07:03:01;;;;;;;0.10;0.10;;;16.40;99.90;;;;;;4862667;29;20049;-89
2023/07/20 07:05:27;;;;;;;0.20;0.20;;;17.10;99.90;;;;;;4861749;29;20049;-86
2023/07/20 07:07:57;;;;;;;0.10;0.10;;;17.30;99.90;;;;;;4877460;29;20053;-93
2023/07/20 07:10:37;;;;;;;0.32;0.20;;;18.10;99.90;;;;;;4847519;29;20052;-93
2023/07/20 07:13:04;;;;;;;0.00;0.00;;;17.40;99.90;;;;;;4832882;29;20510;-89
2023/07/20 07:15:32;;;;;;;0.00;0.00;;;17.60;99.90;;;;;;4862131;29;20057;-90
2023/07/20 07:17:59;;;;;;;0.10;0.10;;;17.60;99.90;;;;;;4862467;29;20045;-89
2023/07/20 07:20:27;;;;;;;0.73;0.17;;;17.60;99.90;;;;;;4863039;29;20057;-89
2023/07/20 07:22:55;;;;;;;0.10;0.10;;;17.70;99.90;;;;;;4865232;29;20057;-89
2023/07/20 07:29:20;;;;;;;;;;;17.70;99.90;;;;;;4842928;29;20262;-90
2023/07/20 07:32:02;;;;;;;0.10;0.10;;;17.80;99.90;;;;;;4827808;29;20319;-94
2023/07/20 09:00:33;;;;;;;0.20;0.20;;;19.20;99.90;;;;;;4824172;29;20102;-96
2023/07/20 09:18:58;;;;;;;;;;;;;;;;;;;;;
2023/07/20 12:28:38;;;;;;;;;;;;;;;;;;;;;
2023/07/20 13:09:05;;;;;;;;;;;;;;;;;;;;;
2023/07/20 13:23:12;;;;;;;0.38;0.20;;;19.70;99.90;;;;;;4711354;30;20104;-95
2023/07/20 13:48:20;;;;;;;0.10;0.10;;;19.00;99.90;;;;;;4810204;29;20083;-94
2023/07/20 13:51:07;;;;;;;;;;;;;;;;;;;;;
2023/07/20 13:57:53;;;;;;;;;;;;;;;;;;;;;
2023/07/20 14:01:05;;;;;;;;;;;;;;;;;;;;;
2023/07/20 14:14:46;;;;;;;0.43;0.15;;;19.20;99.90;;;;;;4731619;30;20142;-89
2023/07/20 14:17:14;;;;;;;0.10;0.10;;;20.20;1.00;;;;;;4776090;29;20145;-88
2023/07/20 14:19:40;;;;;;;1.40;0.10;;;20.40;99.90;;;;;;4829171;29;20076;-89
2023/07/20 14:22:06;;;;;;;0.40;0.30;;;20.30;99.90;;;;;;4829277;29;20086;-89
2023/07/20 14:24:34;;;;;;;0.00;0.00;;;20.20;99.90;;;;;;4843676;29;20054;-89
2023/07/20 14:27:02;;;;;;;0.10;0.00;;;20.10;47.50;;;;;;4844243;29;20502;-89
2023/07/20 14:29:31;;;;;;;1.17;0.10;;;20.00;99.90;;;;;;4859419;29;20054;-90
2023/07/20 14:32:04;;;;;;;0.10;0.10;;;19.90;99.90;;;;;;4832982;29;20448;-89
2023/07/20 14:34:29;;;;;;;0.20;0.20;;;19.90;99.90;;;;;;4847525;29;20406;-89
2023/07/20 14:36:57;;;;;;;0.55;0.40;;;19.80;99.90;;;;;;4862592;29;20050;-89
2023/07/20 14:39:23;;;;;;;0.30;0.30;;;19.80;99.90;;;;;;4847326;29;20053;-89
2023/07/20 14:41:50;;;;;;;0.20;0.10;;;19.70;99.90;;;;;;4832670;29;20105;-89
2023/07/20 14:44:16;;;;;;;0.28;0.03;;;19.70;99.90;;;;;;4862911;29;20086;-90
2023/07/20 14:46:42;;;;;;;0.03;0.03;;;19.80;1.00;;;;;;4848089;29;20143;-89
2023/07/20 14:49:07;;;;;;;0.00;0.00;;;20.00;99.90;;;;;;4864249;29;20072;-89
2023/07/20 14:51:35;;;;;;;0.17;0.10;;;20.20;99.90;;;;;;4847473;29;20507;-89
2023/07/20 14:54:01;;;;;;;0.05;0.00;;;20.40;99.90;;;;;;4862836;29;20525;-89
2023/07/20 14:56:27;;;;;;;0.10;0.10;;;20.40;99.90;;;;;;4847092;29;20499;-89
2023/07/20 14:58:53;;;;;;;0.08;0.08;;;20.50;1.00;;;;;;4847861;29;20049;-89
2023/07/20 15:01:19;;;;;;;0.05;0.05;;;20.50;99.90;;;;;;4862189;29;20053;-90
2023/07/20 15:03:50;;;;;;;0.32;0.32;;;20.70;99.90;;;;;;4847273;29;20057;-89
2023/07/20 15:06:23;;;;;;;0.30;0.10;;;20.60;99.90;;;;;;4847193;29;20049;-93
2023/07/20 15:08:58;;;;;;;0.40;0.40;;;20.60;99.90;;;;;;4847547;29;20045;-87
2023/07/20 15:11:29;;;;;;;0.20;0.13;;;20.40;99.90;;;;;;4847634;29;20081;-89
2023/07/20 15:13:57;;;;;;;0.10;0.10;;;20.30;99.90;;;;;;4864178;29;20044;-87
2023/07/20 15:16:46;;;;;;;0.13;0.13;;;20.20;1.00;;;;;;4865850;29;20084;-90
2023/07/20 15:19:15;;;;;;;0.10;0.10;;;20.00;1.00;;;;;;4882402;29;20045;-90
2023/07/20 15:21:44;;;;;;;0.20;0.20;;;19.90;99.90;;;;;;4865466;29;20053;-88
2023/07/20 15:24:12;;;;;;;3.13;0.40;;;19.90;62.20;;;;;;4881661;29;20450;-89
2023/07/20 15:26:38;;;;;;;0.15;0.03;;;19.80;11.60;;;;;;4850402;29;20048;-89
2023/07/20 15:29:04;;;;;;;;;;;19.80;99.90;;;;;;4866139;29;20045;-88
2023/07/20 15:31:33;;;;;;;0.00;0.00;;;19.90;1.00;;;;;;4865729;29;20353;-88
2023/07/20 15:33:58;;;;;;;0.05;0.05;;;19.90;40.20;;;;;;4865188;29;20128;-88
2023/07/20 15:36:24;;;;;;;0.30;0.28;;;19.90;99.90;;;;;;4865433;29;20140;-89
2023/07/20 15:38:50;;;;;;;0.17;0.17;;;20.00;99.90;;;;;;4865638;29;20054;-87
2023/07/20 15:41:16;;;;;;;0.20;0.15;;;20.00;98.30;;;;;;4864936;29;20505;-86
2023/07/20 15:43:43;;;;;;;0.28;0.20;;;20.10;99.90;;;;;;4865276;29;20088;-86
2023/07/20 15:46:40;;;;;;;0.43;0.43;;;20.10;1.00;;;;;;4880839;29;20053;-86
2023/07/20 15:49:07;;;;;;;0.20;0.13;;;20.00;99.90;;;;;;4846212;29;20061;-84
2023/07/20 15:51:36;;;;;;;0.20;0.13;;;20.00;29.80;;;;;;4865133;29;20049;-84
2023/07/20 15:54:02;;;;;;;0.10;0.10;;;20.10;1.00;;;;;;4864819;29;20041;-84
2023/07/20 15:56:28;;;;;;;0.00;0.00;;;20.10;99.90;;;;;;4864631;29;20442;-84
2023/07/20 15:58:54;;;;;;;0.10;0.10;;;20.20;1.00;;;;;;4849030;29;20140;-85
2023/07/20 16:01:19;;;;;;;0.20;0.20;;;20.20;99.90;;;;;;4864931;29;20060;-85
2023/07/20 16:03:45;;;;;;;0.20;0.20;;;20.10;99.90;;;;;;4864595;29;20081;-85
2023/07/20 16:06:11;;;;;;;0.10;0.10;;;20.10;99.90;;;;;;4864932;29;20049;-84
2023/07/20 16:08:36;;;;;;;0.10;0.10;;;20.10;99.90;;;;;;4864474;29;20045;-84
2023/07/20 16:11:03;;;;;;;0.20;0.00;;;20.10;9.80;;;;;;4864347;29;20094;-84
2023/07/20 16:13:28;;;;;;;;;;;20.10;99.90;;;;;;4864765;29;20057;-84
2023/07/20 16:15:54;;;;;;;0.15;0.10;;;20.00;99.90;;;;;;4860355;29;20440;-85
2023/07/20 16:18:21;;;;;;;0.10;0.10;;;20.00;1.70;;;;;;4860528;29;20553;-85
2023/07/20 16:20:46;;;;;;;0.00;0.00;;;19.90;99.90;;;;;;4860219;29;20058;-84
2023/07/20 16:23:13;;;;;;;0.13;0.13;;;19.80;99.90;;;;;;4844943;29;20140;-85
2023/07/20 16:25:38;;;;;;;;;;;19.80;99.90;;;;;;4860313;29;20550;-84
2023/07/20 16:28:04;;;;;;;0.22;0.22;;;19.70;1.00;;;;;;4860366;29;20091;-85
2023/07/20 16:30:30;;;;;;;0.03;0.03;;;19.60;99.90;;;;;;4860141;29;20053;-85
2023/07/20 16:32:56;;;;;;;0.13;0.13;;;19.60;99.90;;;;;;4860003;29;20524;-85
2023/07/20 16:35:22;;;;;;;;;;;19.60;99.90;;;;;;4860331;29;20048;-86
2023/07/20 16:37:50;;;;;;;0.70;0.22;;;19.50;99.90;;;;;;4859720;29;20044;-85
2023/07/20 16:40:16;;;;;;;0.20;0.10;;;19.50;99.90;;;;;;4860781;29;20570;-93
2023/07/20 16:42:42;;;;;;;0.10;0.10;;;19.70;99.90;;;;;;4859305;29;20140;-85
2023/07/20 16:45:08;;;;;;;0.17;0.10;;;19.50;99.90;;;;;;4859270;29;20058;-85
2023/07/20 16:47:37;;;;;;;0.10;0.10;;;19.40;99.90;;;;;;4858945;29;20498;-83
2023/07/20 16:50:04;;;;;;;0.40;0.30;;;19.50;99.90;;;;;;4859855;29;20101;-85
2023/07/20 16:52:30;;;;;;;0.17;0.17;;;19.50;99.90;;;;;;4859073;29;20061;-85
2023/07/20 16:54:56;;;;;;;0.10;0.10;;;19.40;99.90;;;;;;4859785;29;20057;-84
2023/07/20 16:57:22;;;;;;;0.00;0.00;;;19.40;1.00;;;;;;4861126;29;20116;-84
2023/07/20 16:59:47;;;;;;;0.10;0.10;;;19.40;99.90;;;;;;4862275;29;20076;-85
2023/07/20 17:02:14;;;;;;;0.00;0.00;;;19.40;99.90;;;;;;4845798;29;20049;-83
2023/07/20 17:04:40;;;;;;;0.13;0.13;;;19.40;13.50;;;;;;4859825;29;20137;-83
2023/07/20 17:07:06;;;;;;;0.13;0.13;;;19.40;92.60;;;;;;4844743;29;20153;-84
2023/07/20 17:09:34;;;;;;;0.13;0.08;;;19.50;99.90;;;;;;4859818;29;20074;-87
2023/07/20 17:12:00;;;;;;;0.22;0.22;;;19.50;99.90;;;;;;4860908;29;20401;-86
2023/07/20 17:14:26;;;;;;;0.63;0.27;;;19.40;1.00;;;;;;4836875;29;1172189;-85
2023/07/20 17:16:52;;;;;;;0.45;0.10;;;19.40;1.00;;;;;;4878783;29;20440;-84
2023/07/20 17:19:18;;;;;;;0.20;0.20;;;19.50;99.90;;;;;;4879084;29;20061;-84
2023/07/20 17:21:44;;;;;;;0.17;0.17;;;19.40;99.90;;;;;;4863229;29;20106;-83
2023/07/20 17:24:10;;;;;;;0.10;0.10;;;19.40;1.00;;;;;;4878557;29;20135;-83
2023/07/20 17:26:39;;;;;;;0.10;0.10;;;19.40;92.00;;;;;;4862893;29;20084;-84
2023/07/20 17:29:04;;;;;;;0.10;0.10;;;19.40;1.00;;;;;;4863085;29;20068;-89
2023/07/20 17:31:30;;;;;;;0.08;0.08;;;19.30;3.40;;;;;;4863254;29;20402;-84
2023/07/20 17:33:56;;;;;;;0.17;0.13;;;19.30;99.90;;;;;;4878159;29;20097;-84
2023/07/20 17:36:22;;;;;;;0.10;0.10;;;19.30;99.90;;;;;;4862771;29;20056;-84
2023/07/20 17:38:48;;;;;;;0.10;0.10;;;19.20;99.90;;;;;;4862280;29;20052;-83
2023/07/20 17:41:14;;;;;;;0.00;0.00;;;19.20;99.90;;;;;;4862483;29;20060;-86
2023/07/20 17:43:40;;;;;;;0.17;0.17;;;19.10;99.90;;;;;;4878903;29;20057;-84
2023/07/20 17:46:05;;;;;;;0.93;0.20;;;19.10;99.90;;;;;;4863017;29;20052;-84
2023/07/20 17:48:32;;;;;;;0.10;0.10;;;19.00;99.90;;;;;;4862854;29;20049;-88
2023/07/20 17:50:58;;;;;;;0.13;0.13;;;19.00;99.90;;;;;;4862469;29;20049;-86
2023/07/20 17:53:26;;;;;;;0.03;0.03;;;19.00;99.90;;;;;;4847672;29;20071;-94
2023/07/20 17:55:52;;;;;;;0.30;0.30;;;19.00;99.90;;;;;;4878145;29;20059;-89
2023/07/20 17:58:18;;;;;;;0.88;0.30;;;19.00;99.90;;;;;;4862940;29;20044;-89
2023/07/20 18:00:44;;;;;;;0.20;0.20;;;18.90;99.90;;;;;;4862826;29;20052;-91
2023/07/20 18:03:12;;;;;;;0.10;0.10;;;19.00;1.00;;;;;;4862909;29;20418;-91
2023/07/20 18:05:38;;;;;;;0.08;0.08;;;18.90;1.00;;;;;;4862688;29;20132;-94
2023/07/20 18:08:04;;;;;;;0.30;0.30;;;18.20;1.00;;;;;;4847194;29;20494;-90
2023/07/20 18:10:32;;;;;;;0.20;0.20;;;18.80;1.00;;;;;;4862586;29;20045;-89
2023/07/20 18:12:58;;;;;;;0.00;0.00;;;18.90;1.00;;;;;;4862574;29;20229;-87
2023/07/20 18:15:26;;;;;;;0.10;0.00;;;18.80;1.00;;;;;;4862129;29;20060;-87
2023/07/20 18:17:57;;;;;;;0.10;0.10;;;18.80;1.00;;;;;;4862412;29;20115;-86
2023/07/20 18:20:25;;;;;;;0.00;0.00;;;18.70;1.00;;;;;;4862432;29;20482;-87
2023/07/20 18:22:54;;;;;;;0.05;0.05;;;18.90;99.90;;;;;;4861975;29;20529;-89
2023/07/20 18:25:22;;;;;;;0.10;0.10;;;18.90;99.90;;;;;;4862825;29;20057;-94
2023/07/20 18:27:48;;;;;;;0.00;0.00;;;18.90;99.90;;;;;;4862375;29;20114;-87
2023/07/20 18:30:18;;;;;;;0.55;0.20;;;18.80;99.90;;;;;;4862056;29;20053;-86
2023/07/20 18:32:45;;;;;;;0.45;0.20;;;18.80;99.90;;;;;;4846447;29;20502;-86
2023/07/20 18:35:11;;;;;;;0.98;0.32;;;18.70;99.90;;;;;;4846146;29;20084;-86
2023/07/20 18:37:38;;;;;;;0.00;0.00;;;18.70;99.90;;;;;;4862128;29;20092;-85
2023/07/20 18:40:05;;;;;;;0.20;0.10;;;18.70;99.90;;;;;;4861927;29;20045;-85
2023/07/20 18:42:34;;;;;;;0.28;0.28;;;18.70;99.90;;;;;;4862444;29;20057;-88
2023/07/20 18:44:59;;;;;;;0.00;0.00;;;18.70;1.00;;;;;;4879177;29;20049;-85
2023/07/20 18:47:25;;;;;;;0.10;0.10;;;18.60;1.00;;;;;;4877899;29;20048;-87
2023/07/20 18:49:54;;;;;;;0.28;0.28;;;18.50;1.00;;;;;;4862950;29;20057;-87
2023/07/20 18:52:21;;;;;;;0.98;0.32;;;18.50;1.00;;;;;;4847382;29;20061;-86
2023/07/20 18:54:47;;;;;;;0.00;0.00;;;18.50;1.00;;;;;;4846758;29;20458;-88
2023/07/20 18:57:15;;;;;;;0.10;0.10;;;18.40;1.00;;;;;;4862762;29;20166;-87
2023/07/20 18:59:41;;;;;;;0.20;0.20;;;18.40;1.00;;;;;;4861907;29;20519;-88
2023/07/20 19:02:07;;;;;;;;;;;18.30;1.00;;;;;;4863050;29;20398;-89
2023/07/20 19:04:32;;;;;;;0.20;0.20;;;18.30;99.90;;;;;;4848463;29;19924;-89
2023/07/20 19:07:09;;;;;;;0.20;0.20;;;18.20;1.00;;;;;;4863774;29;20114;-90
2023/07/20 19:09:34;;;;;;;0.08;0.08;;;18.20;1.00;;;;;;4863768;29;20103;-89
2023/07/20 19:12:02;;;;;;;0.20;0.20;;;18.10;1.00;;;;;;4863083;29;20057;-89
2023/07/20 19:19:06;;;;;;;0.15;0.15;;;18.10;1.00;;;;;;4864417;29;20112;-89
2023/07/20 19:21:32;;;;;;;0.00;0.00;;;18.00;1.00;;;;;;4864597;29;20085;-88
2023/07/20 19:23:58;;;;;;;0.40;0.03;;;17.90;1.00;;;;;;4848604;29;20471;-88
2023/07/20 19:30:11;;;;;;;0.10;0.10;;;17.80;1.00;;;;;;4863384;29;20525;-87
2023/07/20 19:36:27;;;;;;;0.03;0.03;;;17.70;1.00;;;;;;4863802;29;20506;-87
2023/07/20 19:42:34;;;;;;;0.08;0.08;;;17.60;1.00;;;;;;4863643;29;20158;-87
2023/07/20 19:44:59;;;;;;;0.03;0.03;;;17.50;1.00;;;;;;4863095;29;20098;-87